Hlavní strana
METAR-TAF:

METAR-TAF

Letiště :

Kelibia, Tunisko

zeměpisná šířka: 36-51N, zeměpisná délka: 011-05E, výška: 29 m

Aktuální stav počasí

Zpráva byla vytvořena před 17 minutami, v 23:00 UTC
vítr z různých směrů 2 kt
Teplota 10°C
Vlhkost vzduchu 100%
Tlak 1032 hPa

METAR: DTTL 242300Z AUTO VRB02KT NCD 10/10 Q1032

Čas: 00:17 (23:17 UTC)


TAF: chybějící

Stav a předpovědi počasí z více než 4 000 letišť (zprávy METAR a TAF).

Červené a žluté tečky na mapě představují dostupné meteorologické stanice.

Když kurzor umístíte na tečku, zobrazí se název stanice.

Pak kliknutím zobrazíte stav a předpověď počasí.

Chcete-li změnit mapu, kliknutím na zelené tlačítko se znaménkem +mapu přiblížíte, kliknutím na zelené tlačítko se znaménkem – mapu oddálíte a kliknutím na zelené šipky přejdete na sousední mapy.


METAR-TAF: